createdAt,value
2017-02-14T00:00:30.786Z,93.28
2017-02-14T00:01:30.766Z,95.07
2017-02-14T00:02:30.745Z,96.06
2017-02-14T00:03:30.739Z,96.11
2017-02-14T00:04:30.706Z,96.86
2017-02-14T00:05:30.684Z,98.79
2017-02-14T00:06:30.656Z,99.45
2017-02-14T00:07:30.639Z,98.41
2017-02-14T00:08:30.634Z,98.18
2017-02-14T00:09:30.982Z,98.13
2017-02-14T00:10:30.583Z,99.26
2017-02-14T00:11:30.566Z,99.64
2017-02-14T00:12:30.536Z,99.99
2017-02-14T00:13:30.512Z,99.99
2017-02-14T00:14:30.517Z,98.79
2017-02-14T00:15:30.488Z,99.08
2017-02-14T00:16:30.064Z,99.45
2017-02-14T00:17:30.052Z,98.7
2017-02-14T00:18:30.432Z,97.85
2017-02-14T00:19:30.392Z,98.79
2017-02-14T00:20:30.366Z,99.17
2017-02-14T00:21:30.361Z,99.45
2017-02-14T00:22:30.340Z,99.26
2017-02-14T00:23:30.326Z,99.17
2017-02-14T00:24:29.895Z,98.79
2017-02-14T00:25:30.276Z,99.17
2017-02-14T00:26:30.258Z,99.26
2017-02-14T00:27:30.238Z,96.25
2017-02-14T00:28:30.208Z,96.34
2017-02-14T00:29:30.195Z,97.19
2017-02-14T00:30:30.176Z,97.09
2017-02-14T00:31:30.167Z,96.81
2017-02-14T00:32:30.163Z,97.19
2017-02-14T00:33:30.112Z,97.38
2017-02-14T00:34:30.096Z,97.56
2017-02-14T00:35:30.113Z,98.32
2017-02-14T00:36:30.052Z,98.6
2017-02-14T00:37:30.041Z,97.85
2017-02-14T00:38:30.006Z,97.56
2017-02-14T00:39:29.991Z,97.19
2017-02-14T00:40:29.967Z,98.32
2017-02-14T00:41:29.556Z,98.51
2017-02-14T00:42:29.933Z,97.47
2017-02-14T00:43:29.959Z,98.23
2017-02-14T00:44:29.894Z,98.98
2017-02-14T00:45:29.465Z,99.17
2017-02-14T00:46:29.849Z,98.79
2017-02-14T00:47:29.834Z,96.44
2017-02-14T00:48:29.838Z,96.62
2017-02-14T00:49:29.789Z,95.31
2017-02-14T00:50:29.366Z,95.31
2017-02-14T00:51:29.748Z,97.28
2017-02-14T00:52:29.726Z,96.81
2017-02-14T00:53:29.708Z,99.08
2017-02-14T00:54:29.697Z,99.36
2017-02-14T00:55:29.274Z,99.74
2017-02-14T00:56:29.644Z,96.44
2017-02-14T00:57:29.627Z,98.23
2017-02-14T00:58:30.705Z,98.89
2017-02-14T00:59:29.583Z,98.89
2017-02-14T01:00:29.566Z,99.26
2017-02-14T01:01:29.545Z,98.7
2017-02-14T01:02:29.533Z,97.38
2017-02-14T01:03:29.505Z,95.78
2017-02-14T01:04:29.483Z,95.97
2017-02-14T01:05:29.454Z,96.53
2017-02-14T01:06:29.449Z,96.53
2017-02-14T01:07:29.417Z,96.81
2017-02-14T01:08:29.000Z,97
2017-02-14T01:09:29.380Z,93.23
2017-02-14T01:10:29.359Z,92.95
2017-02-14T01:11:29.338Z,94.17
2017-02-14T01:12:29.321Z,94.17
2017-02-14T01:13:29.287Z,95.02
2017-02-14T01:14:29.279Z,95.68
2017-02-14T01:15:29.255Z,97
2017-02-14T01:16:29.235Z,97.47
2017-02-14T01:17:29.244Z,95.59
2017-02-14T01:18:29.192Z,94.46
2017-02-14T01:19:29.172Z,94.55
2017-02-14T01:20:29.146Z,95.21
2017-02-14T01:21:29.143Z,95.68
2017-02-14T01:22:29.114Z,97.28
2017-02-14T01:23:29.081Z,98.23
2017-02-14T01:24:29.072Z,98.89
2017-02-14T01:25:29.052Z,99.17
2017-02-14T01:26:29.025Z,99.83
2017-02-14T01:27:29.017Z,99.17
2017-02-14T01:28:28.994Z,97.94
2017-02-14T01:29:28.968Z,97.09
2017-02-14T01:30:28.967Z,96.34
2017-02-14T01:31:28.532Z,95.97
2017-02-14T01:32:28.910Z,95.21
2017-02-14T01:33:28.890Z,93.13
2017-02-14T01:34:28.861Z,91.82
2017-02-14T01:35:28.846Z,91.63
2017-02-14T01:36:28.827Z,93.42
2017-02-14T01:37:28.829Z,91.91
2017-02-14T01:38:28.402Z,90.12
2017-02-14T01:39:28.769Z,90.12
2017-02-14T01:40:28.733Z,90.78
2017-02-14T01:41:28.727Z,91.16
2017-02-14T01:42:28.701Z,92
2017-02-14T01:43:28.674Z,94.36
2017-02-14T01:44:28.665Z,95.21
2017-02-14T01:45:28.649Z,94.36
2017-02-14T01:46:28.620Z,93.8
2017-02-14T01:47:28.593Z,93.23
2017-02-14T01:48:28.582Z,90.78
2017-02-14T01:49:28.151Z,89.08
2017-02-14T01:50:28.538Z,89.65
2017-02-14T01:51:28.519Z,90.97
2017-02-14T01:52:28.500Z,92
2017-02-14T01:53:28.476Z,91.91
2017-02-14T01:54:28.445Z,91.72
2017-02-14T01:55:28.446Z,92.19
2017-02-14T01:56:28.418Z,89.65
2017-02-14T01:57:28.394Z,88.61
2017-02-14T01:58:27.974Z,88.71
2017-02-14T01:59:28.360Z,90.59
2017-02-14T02:00:27.931Z,90.69
2017-02-14T02:01:28.321Z,90.31
2017-02-14T02:02:28.293Z,91.91
2017-02-14T02:03:28.270Z,91.91
2017-02-14T02:04:28.250Z,90.12
2017-02-14T02:05:28.231Z,88.8
2017-02-14T02:06:28.210Z,90.22
2017-02-14T02:07:28.191Z,89.84
2017-02-14T02:08:28.162Z,89.74
2017-02-14T02:09:28.147Z,90.31
2017-02-14T02:10:28.131Z,88.99
2017-02-14T02:11:27.707Z,89.84
2017-02-14T02:12:28.087Z,91.06
2017-02-14T02:13:28.064Z,90.31
2017-02-14T02:14:28.043Z,89.74
2017-02-14T02:15:28.027Z,90.41
2017-02-14T02:16:28.007Z,90.97
2017-02-14T02:17:27.987Z,88.52
2017-02-14T02:18:27.964Z,88.52
2017-02-14T02:19:27.946Z,89.46
2017-02-14T02:20:27.927Z,88.99
2017-02-14T02:21:27.902Z,88.42
2017-02-14T02:22:27.886Z,86.72
2017-02-14T02:23:27.862Z,85.41
2017-02-14T02:24:27.845Z,86.44
2017-02-14T02:25:27.822Z,85.03
2017-02-14T02:26:27.525Z,84.28
2017-02-14T02:27:27.781Z,83.61
2017-02-14T02:28:27.746Z,83.43
2017-02-14T02:29:27.744Z,84.28
2017-02-14T02:30:27.720Z,86.25
2017-02-14T02:31:27.704Z,86.82
2017-02-14T02:32:27.688Z,86.82
2017-02-14T02:33:27.647Z,86.54
2017-02-14T02:34:27.635Z,85.5
2017-02-14T02:35:27.213Z,85.6
2017-02-14T02:36:27.589Z,86.44
2017-02-14T02:37:27.572Z,86.72
2017-02-14T02:38:27.553Z,86.44
2017-02-14T02:39:27.533Z,86.63
2017-02-14T02:40:27.524Z,85.13
2017-02-14T02:41:27.490Z,83.99
2017-02-14T02:42:27.495Z,83.71
2017-02-14T02:43:27.451Z,86.25
2017-02-14T02:44:27.450Z,86.44
2017-02-14T02:45:27.414Z,86.72
2017-02-14T02:46:27.382Z,87.38
2017-02-14T02:47:27.358Z,89.46
2017-02-14T02:48:27.358Z,87.67
2017-02-14T02:49:27.336Z,87.48
2017-02-14T02:50:27.307Z,88.42
2017-02-14T02:51:27.292Z,87.38
2017-02-14T02:52:27.264Z,86.72
2017-02-14T02:53:27.237Z,87.01
2017-02-14T02:54:27.219Z,87.86
2017-02-14T02:55:27.203Z,89.93
2017-02-14T02:56:27.178Z,90.59
2017-02-14T02:57:27.172Z,90.97
2017-02-14T02:58:27.138Z,90.5
2017-02-14T02:59:27.121Z,90.03
2017-02-14T03:00:27.095Z,89.56
2017-02-14T03:01:27.074Z,89.65
2017-02-14T03:02:27.055Z,88.61
2017-02-14T03:03:27.041Z,88.04
2017-02-14T03:04:27.017Z,85.78
2017-02-14T03:05:26.995Z,85.22
2017-02-14T03:06:26.969Z,85.22
2017-02-14T03:07:26.955Z,84.47
2017-02-14T03:08:26.932Z,82.67
2017-02-14T03:09:26.910Z,79.66
2017-02-14T03:10:26.888Z,78.24
2017-02-14T03:11:26.874Z,78.24
2017-02-14T03:12:26.860Z,77.11
2017-02-14T03:13:26.830Z,76.17
2017-02-14T03:14:26.801Z,73.91
2017-02-14T03:15:26.790Z,72.68
2017-02-14T03:16:26.780Z,71.73
2017-02-14T03:17:26.355Z,72.49
2017-02-14T03:18:26.720Z,74.28
2017-02-14T03:19:26.725Z,74.76
2017-02-14T03:20:26.707Z,75.42
2017-02-14T03:21:26.663Z,75.51
2017-02-14T03:22:26.647Z,75.7
2017-02-14T03:23:26.612Z,75.13
2017-02-14T03:24:26.616Z,77.3
2017-02-14T03:25:26.576Z,78.43
2017-02-14T03:26:26.573Z,80.22
2017-02-14T03:27:26.543Z,80.69
2017-02-14T03:28:26.119Z,80.88
2017-02-14T03:29:26.498Z,82.1
2017-02-14T03:30:26.474Z,82.29
2017-02-14T03:31:26.456Z,83.05
2017-02-14T03:32:26.435Z,80.13
2017-02-14T03:33:26.418Z,79.09
2017-02-14T03:34:26.396Z,78.81
2017-02-14T03:35:26.374Z,79.19
2017-02-14T03:36:26.352Z,80.41
2017-02-14T03:37:26.333Z,81.16
2017-02-14T03:38:26.313Z,79.47
2017-02-14T03:39:26.292Z,80.41
2017-02-14T03:40:26.275Z,80.88
2017-02-14T03:41:26.256Z,80.41
2017-02-14T03:42:26.227Z,79.85
2017-02-14T03:43:25.814Z,80.13
2017-02-14T03:44:26.183Z,80.41
2017-02-14T03:45:26.170Z,80.98
2017-02-14T03:46:25.752Z,80.6
2017-02-14T03:47:26.131Z,78.9
2017-02-14T03:48:26.109Z,80.51
2017-02-14T03:49:26.081Z,80.13
2017-02-14T03:50:26.060Z,80.13
2017-02-14T03:51:26.041Z,82.58
2017-02-14T03:52:26.022Z,82.67
2017-02-14T03:53:25.615Z,82.1
2017-02-14T03:54:25.984Z,82.29
2017-02-14T03:55:25.957Z,81.26
2017-02-14T03:56:25.942Z,79.75
2017-02-14T03:57:25.914Z,79.19
2017-02-14T03:58:25.913Z,79.56
2017-02-14T03:59:25.879Z,78.52
2017-02-14T04:00:25.856Z,79.28
2017-02-14T04:01:25.844Z,79.75
2017-02-14T04:02:25.816Z,78.71
2017-02-14T04:03:25.783Z,79.37
2017-02-14T04:04:25.387Z,78.34
2017-02-14T04:05:25.748Z,78.34
2017-02-14T04:06:25.738Z,77.58
2017-02-14T04:07:25.709Z,75.04
2017-02-14T04:08:25.701Z,73.25
2017-02-14T04:09:25.668Z,73.81
2017-02-14T04:10:25.648Z,75.04
2017-02-14T04:11:25.629Z,75.23
2017-02-14T04:12:25.617Z,75.42
2017-02-14T04:13:25.578Z,75.7
2017-02-14T04:14:25.557Z,75.98
2017-02-14T04:15:25.552Z,74.19
2017-02-14T04:16:25.523Z,72.68
2017-02-14T04:17:25.503Z,72.58
2017-02-14T04:18:25.077Z,74.1
2017-02-14T04:19:25.456Z,72.3
2017-02-14T04:20:25.440Z,72.58
2017-02-14T04:21:25.433Z,71.36
2017-02-14T04:22:25.405Z,71.55
2017-02-14T04:23:25.375Z,72.02
2017-02-14T04:24:25.352Z,71.92
2017-02-14T04:25:25.328Z,72.21
2017-02-14T04:26:25.316Z,72.68
2017-02-14T04:27:25.296Z,73.25
2017-02-14T04:28:25.273Z,72.11
2017-02-14T04:29:24.863Z,72.02
2017-02-14T04:30:25.240Z,72.68
2017-02-14T04:31:25.214Z,73.25
2017-02-14T04:32:25.204Z,72.21
2017-02-14T04:33:25.176Z,72.21
2017-02-14T04:34:25.148Z,70.7
2017-02-14T04:35:24.730Z,70.51
2017-02-14T04:36:25.106Z,69.95
2017-02-14T04:37:24.685Z,68.91
2017-02-14T04:38:25.066Z,68.82
2017-02-14T04:39:25.050Z,70.14
2017-02-14T04:40:25.029Z,72.02
2017-02-14T04:41:25.007Z,73.06
2017-02-14T04:42:24.985Z,74.1
2017-02-14T04:43:25.563Z,74.85
2017-02-14T04:44:24.946Z,73.53
2017-02-14T04:45:24.946Z,72.96
2017-02-14T04:46:24.904Z,72.87
2017-02-14T04:47:24.875Z,72.68
2017-02-14T04:48:24.865Z,72.87
2017-02-14T04:49:24.832Z,71.92
2017-02-14T04:50:24.478Z,72.21
2017-02-14T04:51:24.806Z,71.55
2017-02-14T04:52:24.786Z,70.98
2017-02-14T04:53:24.753Z,72.02
2017-02-14T04:54:24.733Z,73.91
2017-02-14T04:55:24.726Z,74.95
2017-02-14T04:56:24.689Z,73.15
2017-02-14T04:57:24.688Z,72.02
2017-02-14T04:58:24.655Z,71.73
2017-02-14T04:59:24.630Z,71.55
2017-02-14T05:00:24.604Z,71.64
2017-02-14T05:01:24.594Z,73.91
2017-02-14T05:02:24.568Z,74.85
2017-02-14T05:03:24.540Z,75.32
2017-02-14T05:04:24.529Z,75.79
2017-02-14T05:05:24.116Z,77.11
2017-02-14T05:06:24.475Z,77.49
2017-02-14T05:07:24.468Z,76.17
2017-02-14T05:08:24.438Z,76.64
2017-02-14T05:09:24.428Z,77.67
2017-02-14T05:10:24.410Z,77.77
2017-02-14T05:11:23.983Z,78.34
2017-02-14T05:12:24.364Z,77.58
2017-02-14T05:13:24.342Z,76.82
2017-02-14T05:14:24.336Z,77.11
2017-02-14T05:15:24.301Z,77.58
2017-02-14T05:16:24.281Z,77.96
2017-02-14T05:17:24.261Z,78.71
2017-02-14T05:18:23.846Z,79.75
2017-02-14T05:19:24.218Z,79.94
2017-02-14T05:20:24.196Z,79.56
2017-02-14T05:21:24.182Z,79
2017-02-14T05:22:24.156Z,78.81
2017-02-14T05:23:23.735Z,78.71
2017-02-14T05:24:24.117Z,79
2017-02-14T05:25:24.083Z,77.11
2017-02-14T05:26:24.082Z,75.04
2017-02-14T05:27:24.056Z,76.07
2017-02-14T05:28:24.037Z,76.73
2017-02-14T05:29:24.003Z,76.45
2017-02-14T05:30:23.995Z,75.32
2017-02-14T05:31:23.564Z,74.19
2017-02-14T05:32:23.948Z,72.11
2017-02-14T05:33:23.530Z,71.45
2017-02-14T05:34:23.914Z,70.79
2017-02-14T05:35:23.922Z,69.57
2017-02-14T05:36:23.877Z,70.23
2017-02-14T05:37:23.838Z,69.76
2017-02-14T05:38:23.823Z,69.29
2017-02-14T05:39:23.837Z,69.95
2017-02-14T05:40:23.775Z,70.51
2017-02-14T05:41:23.768Z,70.61
2017-02-14T05:42:23.350Z,71.55
2017-02-14T05:43:23.718Z,72.02
2017-02-14T05:44:23.695Z,72.87
2017-02-14T05:45:23.681Z,73.53
2017-02-14T05:46:23.677Z,73.43
2017-02-14T05:47:23.651Z,73.43
2017-02-14T05:48:23.622Z,72.87
2017-02-14T05:49:23.597Z,74.1
2017-02-14T05:50:23.578Z,72.77
2017-02-14T05:51:23.586Z,71.73
2017-02-14T05:52:23.526Z,70.7
2017-02-14T05:53:23.529Z,70.61
2017-02-14T05:54:23.495Z,71.64
2017-02-14T05:55:23.471Z,72.21
2017-02-14T05:56:23.443Z,72.3
2017-02-14T05:57:23.423Z,71.08
2017-02-14T05:58:23.406Z,70.79
2017-02-14T05:59:23.386Z,71.08
2017-02-14T06:00:23.363Z,71.26
2017-02-14T06:01:23.352Z,70.7
2017-02-14T06:02:22.922Z,71.83
2017-02-14T06:03:23.306Z,72.49
2017-02-14T06:04:23.284Z,72.11
2017-02-14T06:05:22.866Z,71.64
2017-02-14T06:06:23.234Z,70.79
2017-02-14T06:07:23.229Z,70.32
2017-02-14T06:08:23.204Z,69.67
2017-02-14T06:09:23.182Z,69.38
2017-02-14T06:10:23.171Z,68.82
2017-02-14T06:11:23.138Z,68.63
2017-02-14T06:12:23.123Z,68.72
2017-02-14T06:13:23.101Z,69.85
2017-02-14T06:14:23.079Z,70.7
2017-02-14T06:15:23.061Z,70.51
2017-02-14T06:16:23.027Z,68.53
2017-02-14T06:17:23.017Z,68.15
2017-02-14T06:18:22.987Z,67.78
2017-02-14T06:19:22.973Z,67.59
2017-02-14T06:20:22.953Z,66.93
2017-02-14T06:21:22.934Z,66.74
2017-02-14T06:22:22.914Z,67.21
2017-02-14T06:23:22.890Z,68.25
2017-02-14T06:24:22.863Z,69.57
2017-02-14T06:25:22.853Z,69.57
2017-02-14T06:26:22.834Z,69.29
2017-02-14T06:27:22.824Z,69.1
2017-02-14T06:28:22.788Z,70.61
2017-02-14T06:29:22.777Z,71.55
2017-02-14T06:30:22.746Z,72.02
2017-02-14T06:31:22.723Z,72.77
2017-02-14T06:32:22.708Z,74
2017-02-14T06:33:22.681Z,75.6
2017-02-14T06:34:22.661Z,77.67
2017-02-14T06:35:22.635Z,77.3
2017-02-14T06:36:22.627Z,75.79
2017-02-14T06:37:22.203Z,77.39
2017-02-14T06:38:22.579Z,78.71
2017-02-14T06:39:22.563Z,77.11
2017-02-14T06:40:22.540Z,74.95
2017-02-14T06:41:22.520Z,72.49
2017-02-14T06:42:22.519Z,71.45
2017-02-14T06:43:22.482Z,71.36
2017-02-14T06:44:22.450Z,71.26
2017-02-14T06:45:22.457Z,71.36
2017-02-14T06:46:22.416Z,72.02
2017-02-14T06:47:22.394Z,73.53
2017-02-14T06:48:22.388Z,74.1
2017-02-14T06:49:21.957Z,73.25
2017-02-14T06:50:22.327Z,73.62
2017-02-14T06:51:22.327Z,75.23
2017-02-14T06:52:22.293Z,75.32
2017-02-14T06:53:22.285Z,75.04
2017-02-14T06:54:22.248Z,74.95
2017-02-14T06:55:22.246Z,74.19
2017-02-14T06:56:22.205Z,74.1
2017-02-14T06:57:22.190Z,74.95
2017-02-14T06:58:22.169Z,75.13
2017-02-14T06:59:22.149Z,75.79
2017-02-14T07:00:22.133Z,76.26
2017-02-14T07:01:22.109Z,76.54
2017-02-14T07:02:22.085Z,77.58
2017-02-14T07:03:22.078Z,77.96
2017-02-14T07:04:22.057Z,77.58
2017-02-14T07:05:22.027Z,77.15
2017-02-14T07:06:22.004Z,76.58
2017-02-14T07:07:21.985Z,76.3
2017-02-14T07:08:21.955Z,77.06
2017-02-14T07:09:21.963Z,79.13
2017-02-14T07:10:21.915Z,79.03
2017-02-14T07:11:21.902Z,78.66
2017-02-14T07:12:21.885Z,78.09
2017-02-14T07:13:21.857Z,80.26
2017-02-14T07:14:21.844Z,80.73
2017-02-14T07:15:21.814Z,80.36
2017-02-14T07:16:21.398Z,81.68
2017-02-14T07:17:21.784Z,82.24
2017-02-14T07:18:21.755Z,82.71
2017-02-14T07:19:21.344Z,82.62
2017-02-14T07:20:21.717Z,82.24
2017-02-14T07:21:21.705Z,81.3
2017-02-14T07:22:21.682Z,80.64
2017-02-14T07:23:21.651Z,80.83
2017-02-14T07:24:21.641Z,82.06
2017-02-14T07:25:21.618Z,81.87
2017-02-14T07:26:21.614Z,82.34
2017-02-14T07:27:21.180Z,83.37
2017-02-14T07:28:21.565Z,85.45
2017-02-14T07:29:21.544Z,86.11
2017-02-14T07:30:21.529Z,85.17
2017-02-14T07:31:21.505Z,84.51
2017-02-14T07:32:21.476Z,85.36
2017-02-14T07:33:21.464Z,86.77
2017-02-14T07:34:21.038Z,88.09
2017-02-14T07:35:21.432Z,88.75
2017-02-14T07:36:21.402Z,89.13
2017-02-14T07:37:21.389Z,89.22
2017-02-14T07:38:21.360Z,90.64
2017-02-14T07:39:21.354Z,92.05
2017-02-14T07:40:21.316Z,92.05
2017-02-14T07:41:21.300Z,92.71
2017-02-14T07:42:21.283Z,94.32
2017-02-14T07:43:21.268Z,95.83
2017-02-14T07:44:21.242Z,97.05
2017-02-14T07:45:21.212Z,98.28
2017-02-14T07:46:21.205Z,98.09
2017-02-14T07:47:21.170Z,96.2
2017-02-14T07:48:21.153Z,94.03
2017-02-14T07:49:20.741Z,92.43
2017-02-14T07:50:21.115Z,91.77
2017-02-14T07:51:21.103Z,91.2
2017-02-14T07:52:21.092Z,90.92
2017-02-14T07:53:21.071Z,88.94
2017-02-14T07:54:21.041Z,89.03
2017-02-14T07:55:21.023Z,90.17
2017-02-14T07:56:21.011Z,90.64
2017-02-14T07:57:20.986Z,91.86
2017-02-14T07:58:20.959Z,92.8
2017-02-14T07:59:20.945Z,93.42
2017-02-14T08:00:20.912Z,94.74
2017-02-14T08:01:20.909Z,94.74
2017-02-14T08:02:20.877Z,95.59
2017-02-14T08:03:20.868Z,95.12
2017-02-14T08:04:20.850Z,93.8
2017-02-14T08:05:20.814Z,94.08
2017-02-14T08:06:20.809Z,93.99
2017-02-14T08:07:20.788Z,94.46
2017-02-14T08:08:20.771Z,94.65
2017-02-14T08:09:20.347Z,94.18
2017-02-14T08:10:20.718Z,94.08
2017-02-14T08:11:20.700Z,95.68
2017-02-14T08:12:20.294Z,95.68
2017-02-14T08:13:20.670Z,96.15
2017-02-14T08:14:20.647Z,97.1
2017-02-14T08:15:20.630Z,99.37
2017-02-14T08:16:20.215Z,99.99
2017-02-14T08:17:20.600Z,99.18
2017-02-14T08:18:20.570Z,99.99
2017-02-14T08:19:20.553Z,99.99
2017-02-14T08:20:20.529Z,99.99
2017-02-14T08:21:20.527Z,99.99
2017-02-14T08:22:20.506Z,99.99
2017-02-14T08:23:20.473Z,99.99
2017-02-14T08:24:20.448Z,99.99
2017-02-14T08:25:20.440Z,99.99
2017-02-14T08:26:20.413Z,99.99
2017-02-14T08:27:20.403Z,99.99
2017-02-14T08:28:20.384Z,99.99
2017-02-14T08:29:19.977Z,99.99
2017-02-14T08:30:20.345Z,99.99
2017-02-14T08:31:20.331Z,99.99
2017-02-14T08:32:20.297Z,99.99
2017-02-14T08:33:20.330Z,99.99
2017-02-14T08:34:19.891Z,99.99
2017-02-14T08:35:20.275Z,99.99
2017-02-14T08:36:20.253Z,99.99
2017-02-14T08:37:20.247Z,99.99
2017-02-14T08:38:20.224Z,99.99
2017-02-14T08:39:19.797Z,99.99
2017-02-14T08:40:20.183Z,99.99
2017-02-14T08:41:20.166Z,99.99
2017-02-14T08:42:20.141Z,99.99
2017-02-14T08:43:20.141Z,99.99
2017-02-14T08:44:20.108Z,99.99
2017-02-14T08:45:20.102Z,99.99
2017-02-14T08:46:20.073Z,99.99
2017-02-14T08:47:19.649Z,99.99
2017-02-14T08:48:20.032Z,99.99
2017-02-14T08:49:20.017Z,99.99
2017-02-14T08:50:20.029Z,99.99
2017-02-14T08:51:19.982Z,99.99
2017-02-14T08:52:19.962Z,99.99
2017-02-14T08:53:19.947Z,99.99
2017-02-14T08:54:19.916Z,99.99
2017-02-14T08:55:19.930Z,99.99
2017-02-14T08:56:19.894Z,99.99
2017-02-14T08:57:19.870Z,99.99
2017-02-14T08:58:19.851Z,99.99
2017-02-14T08:59:19.829Z,99.99
2017-02-14T09:00:19.815Z,99.99
2017-02-14T09:01:19.402Z,99.99
2017-02-14T09:02:19.777Z,99.99
2017-02-14T09:03:19.761Z,99.99
2017-02-14T09:04:19.747Z,99.99
2017-02-14T09:05:19.725Z,99.99
2017-02-14T09:06:19.705Z,99.99
2017-02-14T09:07:19.688Z,99.99
2017-02-14T09:08:19.662Z,99.99
2017-02-14T09:09:19.253Z,99.99
2017-02-14T09:10:19.633Z,99.99
2017-02-14T09:11:19.611Z,99.99
2017-02-14T09:12:19.599Z,99.99
2017-02-14T09:13:19.582Z,99.99
2017-02-14T09:14:19.565Z,99.99
2017-02-14T09:15:19.547Z,99.99
2017-02-14T09:16:19.532Z,99.99
2017-02-14T09:17:19.523Z,99.99
2017-02-14T09:18:19.499Z,99.99
2017-02-14T09:19:19.075Z,99.99
2017-02-14T09:20:19.472Z,99.99
2017-02-14T09:21:19.451Z,99.99
2017-02-14T09:22:19.419Z,99.99
2017-02-14T09:23:19.007Z,99.99
2017-02-14T09:24:19.412Z,99.99
2017-02-14T09:25:19.371Z,99.99
2017-02-14T09:26:19.365Z,99.99
2017-02-14T09:27:19.345Z,99.99
2017-02-14T09:28:19.314Z,99.99
2017-02-14T09:29:19.303Z,99.99
2017-02-14T09:30:19.283Z,99.99
2017-02-14T09:31:19.268Z,99.99
2017-02-14T09:32:19.245Z,99.99
2017-02-14T09:33:19.239Z,99.99
2017-02-14T09:34:19.218Z,99.99
2017-02-14T09:35:19.203Z,99.99
2017-02-14T09:36:19.189Z,99.99
2017-02-14T09:37:19.169Z,99.99
2017-02-14T09:38:19.162Z,99.99
2017-02-14T09:39:19.216Z,99.99
2017-02-14T09:40:18.718Z,99.99
2017-02-14T09:41:19.099Z,99.99
2017-02-14T09:42:19.088Z,99.99
2017-02-14T09:43:19.061Z,99.99
2017-02-14T09:44:19.052Z,99.99
2017-02-14T09:45:18.635Z,99.99
2017-02-14T09:46:19.019Z,99.99
2017-02-14T09:47:19.002Z,99.99
2017-02-14T09:48:18.986Z,99.99
2017-02-14T09:49:18.980Z,99.99
2017-02-14T09:50:18.967Z,99.99
2017-02-14T09:51:18.937Z,99.99
2017-02-14T09:52:18.910Z,99.99
2017-02-14T09:53:18.904Z,99.99
2017-02-14T09:54:18.881Z,99.99
2017-02-14T09:55:18.873Z,99.99
2017-02-14T09:56:18.853Z,99.99
2017-02-14T09:57:18.831Z,99.99
2017-02-14T09:58:18.821Z,99.99
2017-02-14T09:59:18.823Z,99.99
2017-02-14T10:00:18.790Z,99.99
2017-02-14T10:01:18.778Z,99.99
2017-02-14T10:02:18.758Z,99.99
2017-02-14T10:03:18.753Z,99.99
2017-02-14T10:04:18.726Z,99.99
2017-02-14T10:05:18.709Z,99.99
2017-02-14T10:06:18.700Z,99.99
2017-02-14T10:07:18.670Z,99.99
2017-02-14T10:08:18.660Z,99.99
2017-02-14T10:09:18.648Z,99.99
2017-02-14T10:10:18.621Z,99.99
2017-02-14T10:11:18.618Z,99.99
2017-02-14T10:12:18.604Z,99.99
2017-02-14T10:13:18.585Z,99.99
2017-02-14T10:14:18.574Z,99.99
2017-02-14T10:15:18.550Z,99.99
2017-02-14T10:16:18.536Z,99.57
2017-02-14T10:17:18.529Z,97.77
2017-02-14T10:18:18.496Z,96.45
2017-02-14T10:19:18.484Z,96.92
2017-02-14T10:20:18.473Z,96.83
2017-02-14T10:21:18.449Z,95.03
2017-02-14T10:22:18.442Z,94.84
2017-02-14T10:23:18.427Z,94.74
2017-02-14T10:24:18.420Z,93.8
2017-02-14T10:25:17.993Z,92.85
2017-02-14T10:26:18.391Z,92.66
2017-02-14T10:27:18.356Z,91.15
2017-02-14T10:28:18.353Z,89.63
2017-02-14T10:29:18.343Z,87.78
2017-02-14T10:30:18.318Z,86.46
2017-02-14T10:31:18.303Z,85.61
2017-02-14T10:32:18.285Z,86.08
2017-02-14T10:33:18.270Z,86.65
2017-02-14T10:34:18.259Z,86.08
2017-02-14T10:35:18.243Z,84.89
2017-02-14T10:36:17.821Z,84.13
2017-02-14T10:37:18.216Z,82.71
2017-02-14T10:38:18.189Z,82.24
2017-02-14T10:39:18.180Z,80.82
2017-02-14T10:40:18.218Z,77.88
2017-02-14T10:41:18.276Z,76.87
2017-02-14T10:42:18.026Z,76.78
2017-02-14T10:43:18.057Z,76.12
2017-02-14T10:44:18.313Z,75.93
2017-02-14T10:45:18.446Z,75.26
2017-02-14T10:46:18.199Z,75.07
2017-02-14T10:47:18.527Z,74.79
2017-02-14T10:48:18.439Z,74.22
2017-02-14T10:49:18.034Z,73.56
2017-02-14T10:50:18.018Z,71.66
2017-02-14T10:51:18.008Z,71.76
2017-02-14T10:52:17.992Z,71.47
2017-02-14T10:53:17.971Z,72.52
2017-02-14T10:54:17.986Z,72.23
2017-02-14T10:55:17.940Z,71.66
2017-02-14T10:56:17.942Z,69.67
2017-02-14T10:57:17.928Z,69.29
2017-02-14T10:58:17.910Z,69.61
2017-02-14T10:59:17.896Z,69.77
2017-02-14T11:00:17.873Z,68.76
2017-02-14T11:01:17.865Z,67.71
2017-02-14T11:02:17.850Z,66.2
2017-02-14T11:03:17.834Z,66.39
2017-02-14T11:04:17.829Z,64.49
2017-02-14T11:05:17.815Z,63.26
2017-02-14T11:06:17.799Z,63.17
2017-02-14T11:07:17.789Z,63.35
2017-02-14T11:08:17.764Z,63.23
2017-02-14T11:09:17.761Z,63.64
2017-02-14T11:10:17.749Z,63.45
2017-02-14T11:11:17.731Z,62.66
2017-02-14T11:12:17.717Z,62.02
2017-02-14T11:13:17.698Z,61.83
2017-02-14T11:14:17.691Z,62.78
2017-02-14T11:15:17.667Z,62.59
2017-02-14T11:16:17.650Z,63.54
2017-02-14T11:17:17.647Z,64.78
2017-02-14T11:18:17.630Z,64.78
2017-02-14T11:19:17.213Z,62.5
2017-02-14T11:20:17.605Z,62.5
2017-02-14T11:21:17.590Z,63.64
2017-02-14T11:22:17.605Z,65.63
2017-02-14T11:23:17.574Z,66.2
2017-02-14T11:24:17.554Z,66.39
2017-02-14T11:25:17.557Z,67.81
2017-02-14T11:26:17.533Z,67.56
2017-02-14T11:27:17.112Z,67.65
2017-02-14T11:28:17.503Z,66.99
2017-02-14T11:29:17.488Z,67.08
2017-02-14T11:30:17.468Z,67.46
2017-02-14T11:31:17.061Z,67.94
2017-02-14T11:32:17.445Z,67.75
2017-02-14T11:33:17.435Z,68.13
2017-02-14T11:34:17.429Z,68.23
2017-02-14T11:35:17.407Z,65.09
2017-02-14T11:36:17.394Z,63.01
2017-02-14T11:37:17.383Z,61.87
2017-02-14T11:38:17.371Z,61.68
2017-02-14T11:39:17.359Z,61.77
2017-02-14T11:40:17.334Z,62.34
2017-02-14T11:41:17.325Z,62.97
2017-02-14T11:42:17.323Z,64.33
2017-02-14T11:43:17.297Z,63.01
2017-02-14T11:44:17.299Z,63.45
2017-02-14T11:45:17.277Z,62.72
2017-02-14T11:46:17.266Z,62.43
2017-02-14T11:47:17.269Z,61.39
2017-02-14T11:48:17.244Z,61.68
2017-02-14T11:49:17.232Z,61.3
2017-02-14T11:50:17.219Z,60.73
2017-02-14T11:51:17.202Z,60.44
2017-02-14T11:52:17.199Z,59.78
2017-02-14T11:53:17.174Z,59.78
2017-02-14T11:54:17.161Z,59.4
2017-02-14T11:55:17.142Z,59.4
2017-02-14T11:56:17.132Z,59.4
2017-02-14T11:57:17.123Z,59.4
2017-02-14T11:58:17.114Z,59.59
2017-02-14T11:59:17.103Z,59.4
2017-02-14T12:00:16.685Z,58.92
2017-02-14T12:01:17.066Z,59.97
2017-02-14T12:02:16.668Z,61.11
2017-02-14T12:03:16.659Z,61.58
2017-02-14T12:04:17.034Z,60.53
2017-02-14T12:05:17.012Z,60.44
2017-02-14T12:06:17.007Z,60.35
2017-02-14T12:07:16.990Z,60.06
2017-02-14T12:08:16.982Z,59.88
2017-02-14T12:09:16.973Z,60.06
2017-02-14T12:10:16.972Z,60.25
2017-02-14T12:11:16.950Z,60.82
2017-02-14T12:12:16.932Z,60.73
2017-02-14T12:13:16.929Z,61.11
2017-02-14T12:14:16.918Z,61.3
2017-02-14T12:15:16.921Z,62.15
2017-02-14T12:16:16.886Z,62.62
2017-02-14T12:17:16.879Z,62.05
2017-02-14T12:18:16.463Z,61.3
2017-02-14T12:19:16.841Z,59.88
2017-02-14T12:20:16.852Z,58.45
2017-02-14T12:21:16.819Z,59.02
2017-02-14T12:22:16.807Z,58.73
2017-02-14T12:23:16.796Z,58.54
2017-02-14T12:24:16.783Z,59.4
2017-02-14T12:25:16.778Z,59.97
2017-02-14T12:26:16.754Z,59.88
2017-02-14T12:27:16.768Z,59.49
2017-02-14T12:28:16.738Z,59.49
2017-02-14T12:29:16.720Z,59.49
2017-02-14T12:30:16.712Z,59.4
2017-02-14T12:31:16.705Z,59.46
2017-02-14T12:32:16.682Z,59.4
2017-02-14T12:33:16.675Z,59.49
2017-02-14T12:34:16.650Z,60.53
2017-02-14T12:35:16.648Z,59.59
2017-02-14T12:36:16.635Z,59.21
2017-02-14T12:37:16.622Z,58.83
2017-02-14T12:38:16.609Z,58.89
2017-02-14T12:39:16.598Z,59.3
2017-02-14T12:40:16.595Z,59.02
2017-02-14T12:41:16.581Z,60.06
2017-02-14T12:42:16.560Z,60.35
2017-02-14T12:43:16.535Z,60.16
2017-02-14T12:44:16.527Z,60.63
2017-02-14T12:45:16.515Z,60.06
2017-02-14T12:46:16.513Z,59.49
2017-02-14T12:47:16.495Z,59.88
2017-02-14T12:48:16.485Z,60.06
2017-02-14T12:49:16.474Z,60.25
2017-02-14T12:50:16.048Z,59.78
2017-02-14T12:51:16.466Z,60.44
2017-02-14T12:52:16.426Z,61.01
2017-02-14T12:53:16.019Z,61.3
2017-02-14T12:54:16.417Z,61.96
2017-02-14T12:55:16.395Z,60.53